Time;durP1;ratioP1;P1;durP2;ratioP2;P2;SDS_P1;SDS_P2;PMS_P1;PMS_P2;Temp;Humidity;BMP_temperature;BMP_pressure;BME280_temperature;BME280_humidity;BME280_pressure;Samples;Min_cycle;Max_cycle;Signal;HPM_P1;HPM_P2
2023/08/09 00:01:18;;;;;;;1.58;1.27;;;;;;;;;;5008128;28;20036;-73
2023/08/09 00:03:43;;;;;;;2.03;1.70;;;;;;;;;;5007706;28;20014;-73
2023/08/09 00:06:08;;;;;;;2.78;2.08;;;;;;;;;;5006939;28;20018;-73
2023/08/09 00:08:34;;;;;;;1.55;1.45;;;;;;;;;;5006185;28;20478;-73
2023/08/09 00:10:59;;;;;;;2.22;1.65;;;;;;;;;;5007050;28;20021;-73
2023/08/09 00:13:25;;;;;;;1.67;1.58;;;;;;;;;;5007960;28;20026;-73
2023/08/09 00:15:51;;;;;;;2.13;1.90;;;;;;;;;;5008645;28;20177;-73
2023/08/09 00:18:16;;;;;;;2.08;1.25;;;;;;;;;;5007543;28;20426;-73
2023/08/09 00:20:41;;;;;;;2.47;1.85;;;;;;;;;;5008308;28;20034;-74
2023/08/09 00:23:07;;;;;;;2.38;1.60;;;;;;;;;;5007661;28;20029;-73
2023/08/09 00:25:33;;;;;;;3.55;1.65;;;;;;;;;;5008423;28;20620;-73
2023/08/09 00:27:59;;;;;;;2.17;1.73;;;;;;;;;;5007836;28;20478;-73
2023/08/09 00:30:25;;;;;;;3.08;2.00;;;;;;;;;;5007186;28;20057;-73
2023/08/09 00:32:50;;;;;;;2.25;1.63;;;;;;;;;;5007593;28;20083;-73
2023/08/09 00:35:16;;;;;;;1.85;1.50;;;;;;;;;;5008067;28;20038;-73
2023/08/09 00:37:41;;;;;;;2.17;1.90;;;;;;;;;;5007373;28;20663;-72
2023/08/09 00:40:07;;;;;;;2.38;1.63;;;;;;;;;;5006833;28;20101;-72
2023/08/09 00:42:35;;;;;;;3.17;1.73;;;;;;;;;;5006952;28;20025;-72
2023/08/09 00:45:03;;;;;;;2.20;1.67;;;;;;;;;;5007510;28;20022;-73
2023/08/09 00:47:28;;;;;;;1.75;1.60;;;;;;;;;;5007508;28;20620;-73
2023/08/09 00:49:55;;;;;;;2.08;1.88;;;;;;;;;;5007800;28;20022;-72
2023/08/09 00:52:20;;;;;;;1.92;1.67;;;;;;;;;;5006267;28;20033;-73
2023/08/09 00:54:48;;;;;;;2.88;2.03;;;;;;;;;;5005994;28;20010;-73
2023/08/09 00:57:13;;;;;;;3.30;1.80;;;;;;;;;;5007398;28;20021;-72
2023/08/09 00:59:39;;;;;;;2.53;1.77;;;;;;;;;;5007412;28;20032;-72
2023/08/09 01:02:04;;;;;;;1.77;1.67;;;;;;;;;;5006219;28;20126;-72
2023/08/09 01:04:30;;;;;;;2.83;1.70;;;;;;;;;;5006419;28;20030;-72
2023/08/09 01:07:06;;;;;;;2.78;2.00;;;;;;;;;;5005232;28;20092;-72
2023/08/09 01:09:36;;;;;;;1.83;1.58;;;;;;;;;;5004673;28;20056;-73
2023/08/09 01:12:07;;;;;;;3.00;2.10;;;;;;;;;;5006200;28;20029;-73
2023/08/09 01:14:36;;;;;;;1.83;1.73;;;;;;;;;;5005805;28;20413;-73
2023/08/09 01:17:03;;;;;;;2.35;1.92;;;;;;;;;;5006384;28;20037;-73
2023/08/09 01:19:39;;;;;;;2.58;2.00;;;;;;;;;;5005048;28;20053;-73
2023/08/09 01:22:18;;;;;;;3.10;1.80;;;;;;;;;;5005540;28;20025;-73
2023/08/09 01:24:44;;;;;;;1.98;1.80;;;;;;;;;;5005126;28;20060;-72
2023/08/09 09:23:24;;;;;;;1.05;0.50;;;;;;;;;;5042270;28;20455;-75
2023/08/09 09:26:08;;;;;;;1.15;0.90;;;;;;;;;;5023606;28;20121;-76
2023/08/09 09:28:41;;;;;;;2.63;0.85;;;;;;;;;;4985603;28;20045;-75
2023/08/09 09:31:10;;;;;;;1.25;0.65;;;;;;;;;;4957211;28;20054;-76
2023/08/09 09:33:37;;;;;;;2.72;0.68;;;;;;;;;;4950303;28;20043;-74
2023/08/09 09:36:03;;;;;;;1.40;0.52;;;;;;;;;;4943821;28;20077;-76
2023/08/09 09:38:29;;;;;;;0.47;0.47;;;;;;;;;;4959554;28;20541;-76
2023/08/09 09:40:56;;;;;;;1.95;0.68;;;;;;;;;;4946227;28;20057;-75
2023/08/09 09:43:23;;;;;;;0.98;0.60;;;;;;;;;;4938789;28;20062;-75
2023/08/09 09:45:53;;;;;;;2.10;0.50;;;;;;;;;;4944503;28;20035;-76
2023/08/09 09:48:18;;;;;;;1.75;0.60;;;;;;;;;;4940899;28;20396;-74
2023/08/09 09:50:44;;;;;;;1.55;0.50;;;;;;;;;;4948603;28;20074;-76
2023/08/09 09:53:14;;;;;;;2.65;1.00;;;;;;;;;;4979123;28;20267;-76
2023/08/09 09:55:40;;;;;;;0.52;0.50;;;;;;;;;;4951715;28;20042;-76
2023/08/09 09:58:06;;;;;;;2.75;0.68;;;;;;;;;;4951820;28;20076;-76
2023/08/09 10:00:32;;;;;;;1.20;0.60;;;;;;;;;;4955278;28;20050;-75
2023/08/09 10:03:01;;;;;;;0.75;0.52;;;;;;;;;;4941393;28;20055;-74
2023/08/09 10:05:29;;;;;;;2.03;0.60;;;;;;;;;;4948249;28;20061;-76
2023/08/09 10:07:56;;;;;;;1.00;0.50;;;;;;;;;;4944191;28;20114;-74
2023/08/09 10:10:22;;;;;;;1.45;0.60;;;;;;;;;;4959477;28;20054;-76
2023/08/09 10:12:51;;;;;;;0.50;0.50;;;;;;;;;;4943064;28;20140;-76
2023/08/09 10:15:20;;;;;;;1.15;0.80;;;;;;;;;;4954123;28;20047;-76
2023/08/09 10:17:49;;;;;;;0.77;0.55;;;;;;;;;;4942585;28;20765;-76
2023/08/09 10:20:17;;;;;;;0.40;0.40;;;;;;;;;;4948539;28;20035;-75
2023/08/09 10:22:46;;;;;;;0.40;0.40;;;;;;;;;;4959703;28;20046;-76
2023/08/09 10:25:12;;;;;;;1.27;0.40;;;;;;;;;;4957450;28;20046;-75
2023/08/09 10:27:59;;;;;;;1.33;0.60;;;;;;;;;;4952394;28;20046;-74
2023/08/09 10:30:28;;;;;;;0.82;0.70;;;;;;;;;;4935475;28;20459;-76
2023/08/09 10:32:55;;;;;;;0.60;0.40;;;;;;;;;;4941594;28;20043;-76
2023/08/09 10:35:44;;;;;;;0.95;0.70;;;;;;;;;;4930789;28;20142;-76
2023/08/09 10:38:13;;;;;;;0.40;0.40;;;;;;;;;;4923513;28;20042;-76
2023/08/09 10:40:41;;;;;;;0.63;0.63;;;;;;;;;;4936069;28;20133;-75
2023/08/09 10:43:07;;;;;;;0.82;0.50;;;;;;;;;;4940834;28;20047;-74
2023/08/09 10:45:33;;;;;;;0.80;0.47;;;;;;;;;;4934917;28;20054;-74
2023/08/09 10:48:27;;;;;;;0.45;0.40;;;;;;;;;;4932699;28;20664;-75
2023/08/09 10:51:07;;;;;;;1.27;0.50;;;;;;;;;;4929337;28;20824;-76
2023/08/09 10:54:03;;;;;;;1.83;0.60;;;;;;;;;;4943980;28;20440;-75
2023/08/09 10:56:47;;;;;;;0.63;0.38;;;;;;;;;;4907925;28;20051;-75
2023/08/09 10:59:23;;;;;;;1.92;0.65;;;;;;;;;;4909074;28;20046;-75
2023/08/09 11:01:49;;;;;;;1.02;0.50;;;;;;;;;;4896009;28;20039;-75
2023/08/09 11:04:14;;;;;;;1.10;0.50;;;;;;;;;;4909519;28;20117;-76
2023/08/09 11:06:42;;;;;;;0.77;0.30;;;;;;;;;;4912587;28;20526;-77
2023/08/09 11:09:11;;;;;;;0.77;0.47;;;;;;;;;;4915928;28;20591;-76
2023/08/09 11:11:37;;;;;;;0.57;0.50;;;;;;;;;;4915843;28;20427;-76
2023/08/09 11:14:04;;;;;;;1.88;0.57;;;;;;;;;;4911330;28;20046;-76
2023/08/09 11:16:29;;;;;;;1.70;0.70;;;;;;;;;;4909345;28;20051;-75
2023/08/09 11:19:08;;;;;;;1.77;0.68;;;;;;;;;;4922435;28;20055;-76
2023/08/09 11:21:41;;;;;;;1.30;0.52;;;;;;;;;;4900722;28;20051;-77
2023/08/09 11:24:08;;;;;;;1.10;0.50;;;;;;;;;;4918160;28;20455;-76
2023/08/09 11:26:38;;;;;;;0.75;0.40;;;;;;;;;;4919895;28;20138;-74
2023/08/09 11:29:04;;;;;;;;;;;;;;;;;;4908246;28;20089;-76
2023/08/09 11:31:32;;;;;;;0.57;0.50;;;;;;;;;;4900126;28;19990;-77
2023/08/09 11:33:59;;;;;;;0.55;0.50;;;;;;;;;;4918233;28;20284;-76
2023/08/09 11:36:29;;;;;;;1.65;0.50;;;;;;;;;;4904267;28;20411;-77
2023/08/09 11:38:58;;;;;;;1.73;0.60;;;;;;;;;;4920597;28;20047;-74
2023/08/09 11:41:25;;;;;;;1.33;0.45;;;;;;;;;;4936656;28;20121;-76
2023/08/09 11:43:52;;;;;;;0.85;0.70;;;;;;;;;;4915042;28;20057;-76
2023/08/09 11:46:24;;;;;;;0.65;0.50;;;;;;;;;;4905196;28;20054;-76
2023/08/09 11:48:50;;;;;;;0.88;0.70;;;;;;;;;;4897121;28;20126;-77
2023/08/09 11:51:20;;;;;;;0.75;0.43;;;;;;;;;;4909404;28;20039;-75
2023/08/09 11:53:49;;;;;;;0.40;0.40;;;;;;;;;;4903693;28;20739;-76
2023/08/09 11:56:22;;;;;;;0.30;0.30;;;;;;;;;;4902702;28;20046;-76
2023/08/09 11:58:54;;;;;;;0.90;0.40;;;;;;;;;;4893549;28;20129;-76
2023/08/09 12:01:27;;;;;;;1.38;0.43;;;;;;;;;;4909877;28;20055;-75
2023/08/09 12:03:56;;;;;;;0.40;0.40;;;;;;;;;;4892646;28;20117;-77
2023/08/09 12:06:42;;;;;;;0.45;0.43;;;;;;;;;;4934273;28;20065;-75
2023/08/09 12:09:42;;;;;;;0.40;0.40;;;;;;;;;;4920180;28;20538;-75
2023/08/09 12:12:13;;;;;;;1.67;0.50;;;;;;;;;;4918298;28;20046;-76
2023/08/09 12:14:43;;;;;;;0.73;0.60;;;;;;;;;;4917565;28;20134;-75
2023/08/09 12:17:26;;;;;;;0.52;0.52;;;;;;;;;;4915036;28;20039;-74
2023/08/09 12:20:04;;;;;;;0.50;0.43;;;;;;;;;;4916793;28;20050;-76
2023/08/09 12:22:30;;;;;;;0.80;0.47;;;;;;;;;;4926016;28;20391;-76
2023/08/09 12:24:57;;;;;;;0.57;0.55;;;;;;;;;;4929004;28;20523;-76
2023/08/09 12:27:23;;;;;;;3.85;0.70;;;;;;;;;;4918863;28;20047;-76
2023/08/09 12:29:49;;;;;;;0.85;0.68;;;;;;;;;;4910344;28;20461;-75
2023/08/09 12:32:14;;;;;;;1.38;0.50;;;;;;;;;;4919084;28;20050;-76
2023/08/09 12:34:40;;;;;;;1.55;0.70;;;;;;;;;;4904820;28;20050;-75
2023/08/09 12:37:09;;;;;;;0.73;0.60;;;;;;;;;;4902967;28;20646;-76
2023/08/09 12:39:34;;;;;;;1.15;0.60;;;;;;;;;;4924223;28;20106;-74
2023/08/09 12:42:00;;;;;;;0.40;0.40;;;;;;;;;;4931038;28;20050;-76
2023/08/09 12:44:26;;;;;;;2.70;0.70;;;;;;;;;;4924363;28;20582;-76
2023/08/09 12:46:52;;;;;;;0.82;0.40;;;;;;;;;;4908527;28;20043;-76
2023/08/09 12:49:18;;;;;;;0.70;0.40;;;;;;;;;;4903447;28;20057;-74
2023/08/09 12:51:43;;;;;;;0.60;0.47;;;;;;;;;;4909464;28;20039;-75
2023/08/09 12:54:09;;;;;;;0.50;0.40;;;;;;;;;;4904943;28;21738;-76
2023/08/09 12:56:35;;;;;;;1.10;0.57;;;;;;;;;;4921001;28;20447;-76
2023/08/09 12:59:01;;;;;;;0.55;0.40;;;;;;;;;;4905417;28;20058;-76
2023/08/09 13:01:27;;;;;;;1.25;0.50;;;;;;;;;;4901826;28;20091;-76
2023/08/09 13:03:52;;;;;;;1.45;0.57;;;;;;;;;;4928339;28;20077;-75
2023/08/09 13:06:20;;;;;;;1.13;0.52;;;;;;;;;;4920489;28;20435;-74
2023/08/09 13:08:45;;;;;;;0.57;0.57;;;;;;;;;;4915046;28;20165;-75
2023/08/09 13:11:11;;;;;;;1.08;0.60;;;;;;;;;;4908198;28;20051;-75
2023/08/09 13:13:38;;;;;;;0.45;0.45;;;;;;;;;;4908569;28;20682;-76
2023/08/09 13:16:07;;;;;;;0.40;0.30;;;;;;;;;;4916900;28;20073;-77
2023/08/09 13:18:36;;;;;;;1.38;0.50;;;;;;;;;;4918517;28;20078;-75
2023/08/09 13:21:06;;;;;;;0.65;0.52;;;;;;;;;;4917276;28;20050;-75
2023/08/09 13:23:32;;;;;;;0.40;0.40;;;;;;;;;;4927873;28;20220;-76
2023/08/09 13:25:58;;;;;;;1.02;0.63;;;;;;;;;;4907181;28;20047;-76
2023/08/09 13:28:24;;;;;;;0.60;0.40;;;;;;;;;;4912816;28;20061;-76
2023/08/09 13:30:49;;;;;;;0.40;0.40;;;;;;;;;;4906716;28;20105;-75
2023/08/09 13:33:15;;;;;;;0.50;0.40;;;;;;;;;;4899926;28;20058;-76
2023/08/09 13:35:42;;;;;;;0.68;0.35;;;;;;;;;;4905657;28;20070;-75
2023/08/09 13:38:23;;;;;;;0.40;0.30;;;;;;;;;;4913914;28;20054;-74
2023/08/09 13:40:49;;;;;;;1.50;0.80;;;;;;;;;;4897627;28;20051;-77
2023/08/09 13:43:14;;;;;;;0.40;0.40;;;;;;;;;;4898861;28;20522;-76
2023/08/09 13:45:39;;;;;;;0.70;0.40;;;;;;;;;;4906080;28;20055;-75
2023/08/09 13:48:05;;;;;;;0.43;0.43;;;;;;;;;;4919061;28;20058;-76
2023/08/09 13:50:31;;;;;;;0.35;0.28;;;;;;;;;;4909159;28;20047;-76
2023/08/09 13:52:56;;;;;;;0.30;0.30;;;;;;;;;;4908102;28;20055;-75
2023/08/09 13:55:22;;;;;;;0.40;0.40;;;;;;;;;;4917686;28;20154;-76
2023/08/09 13:57:47;;;;;;;0.57;0.50;;;;;;;;;;4926508;28;21726;-76
2023/08/09 14:00:14;;;;;;;0.60;0.40;;;;;;;;;;4913002;28;20055;-76
2023/08/09 14:02:40;;;;;;;1.05;0.50;;;;;;;;;;4903382;28;20118;-75
2023/08/09 14:05:06;;;;;;;1.05;0.60;;;;;;;;;;4904517;28;20066;-76
2023/08/09 14:07:31;;;;;;;0.38;0.38;;;;;;;;;;4911488;28;20285;-76
2023/08/09 14:09:56;;;;;;;2.17;0.60;;;;;;;;;;4905125;28;20079;-75
2023/08/09 14:12:22;;;;;;;0.85;0.50;;;;;;;;;;4906122;28;20051;-76
2023/08/09 14:14:47;;;;;;;1.67;0.73;;;;;;;;;;4905590;28;20050;-76
2023/08/09 14:17:13;;;;;;;3.97;1.17;;;;;;;;;;4917413;28;20075;-75
2023/08/09 14:19:38;;;;;;;1.23;0.57;;;;;;;;;;4918575;28;20043;-76
2023/08/09 14:22:03;;;;;;;1.90;0.52;;;;;;;;;;4917884;28;20042;-77
2023/08/09 14:24:29;;;;;;;0.50;0.50;;;;;;;;;;4922164;28;20785;-76
2023/08/09 14:26:55;;;;;;;0.50;0.50;;;;;;;;;;4913211;28;20078;-76
2023/08/09 14:29:20;;;;;;;1.40;0.55;;;;;;;;;;4903042;28;20054;-75
2023/08/09 14:31:45;;;;;;;0.82;0.70;;;;;;;;;;4901984;28;20122;-76
2023/08/09 14:34:11;;;;;;;0.68;0.63;;;;;;;;;;4908194;28;21431;-75
2023/08/09 14:36:36;;;;;;;1.30;0.50;;;;;;;;;;4908261;28;20047;-74
2023/08/09 14:39:02;;;;;;;2.05;0.70;;;;;;;;;;4909205;28;20051;-76
2023/08/09 14:41:27;;;;;;;0.60;0.57;;;;;;;;;;4908426;28;20051;-75
2023/08/09 14:43:54;;;;;;;0.32;0.30;;;;;;;;;;4913681;28;20082;-76
2023/08/09 14:46:19;;;;;;;0.38;0.30;;;;;;;;;;4926834;28;20431;-76
2023/08/09 14:48:44;;;;;;;0.80;0.73;;;;;;;;;;4904296;28;20520;-76
2023/08/09 14:51:11;;;;;;;1.60;0.45;;;;;;;;;;4909397;28;20117;-77
2023/08/09 14:53:38;;;;;;;2.00;0.60;;;;;;;;;;4922816;28;20054;-76
2023/08/09 14:56:03;;;;;;;0.68;0.60;;;;;;;;;;4923505;28;20562;-77
2023/08/09 14:58:29;;;;;;;2.17;0.50;;;;;;;;;;4904141;28;20699;-75
2023/08/09 15:00:55;;;;;;;5.57;0.90;;;;;;;;;;4900402;28;20086;-75
2023/08/09 15:03:20;;;;;;;2.38;0.70;;;;;;;;;;4919058;28;20142;-75
2023/08/09 15:05:46;;;;;;;0.40;0.40;;;;;;;;;;4911399;28;20070;-76
2023/08/09 15:08:11;;;;;;;1.98;0.63;;;;;;;;;;4908309;28;20106;-76
2023/08/09 15:10:37;;;;;;;1.10;0.60;;;;;;;;;;4928916;28;20055;-77
2023/08/09 15:13:03;;;;;;;5.35;1.52;;;;;;;;;;4902396;28;20043;-76
2023/08/09 15:15:30;;;;;;;4.43;0.90;;;;;;;;;;4894943;28;20133;-76
2023/08/09 15:17:58;;;;;;;1.08;0.65;;;;;;;;;;4914104;28;20215;-75
2023/08/09 15:20:23;;;;;;;1.33;0.50;;;;;;;;;;4910935;28;20090;-76
2023/08/09 15:22:49;;;;;;;1.05;0.77;;;;;;;;;;4909233;28;20086;-75
2023/08/09 15:25:17;;;;;;;2.88;0.68;;;;;;;;;;4909055;28;20639;-75
2023/08/09 15:27:43;;;;;;;0.55;0.47;;;;;;;;;;4903575;28;20150;-75
2023/08/09 15:30:10;;;;;;;0.80;0.70;;;;;;;;;;4921533;28;20055;-76
2023/08/09 15:32:35;;;;;;;0.65;0.55;;;;;;;;;;4909502;28;25549;-76
2023/08/09 15:35:00;;;;;;;2.85;0.68;;;;;;;;;;4921858;28;20047;-76
2023/08/09 15:37:26;;;;;;;0.85;0.63;;;;;;;;;;4922132;28;20082;-76
2023/08/09 15:39:51;;;;;;;5.25;1.40;;;;;;;;;;4936897;28;20756;-75
2023/08/09 15:42:17;;;;;;;0.65;0.50;;;;;;;;;;4905814;28;20094;-75
2023/08/09 15:44:42;;;;;;;0.85;0.55;;;;;;;;;;4902935;28;20047;-75
2023/08/09 15:47:09;;;;;;;6.18;0.82;;;;;;;;;;4928269;28;20072;-76
2023/08/09 15:49:34;;;;;;;0.80;0.80;;;;;;;;;;4929115;28;20046;-76
2023/08/09 15:52:00;;;;;;;0.80;0.50;;;;;;;;;;4929176;28;20098;-75
2023/08/09 15:54:25;;;;;;;0.40;0.40;;;;;;;;;;4920306;28;20467;-75
2023/08/09 15:56:50;;;;;;;0.73;0.50;;;;;;;;;;4923841;28;20558;-75
2023/08/09 15:59:16;;;;;;;1.25;0.90;;;;;;;;;;4920898;28;21240;-76
2023/08/09 16:01:41;;;;;;;0.50;0.50;;;;;;;;;;4915662;28;20138;-75
2023/08/09 16:04:07;;;;;;;0.88;0.40;;;;;;;;;;4918170;28;20451;-75
2023/08/09 16:06:32;;;;;;;1.55;0.65;;;;;;;;;;4904249;28;20035;-75
2023/08/09 16:08:57;;;;;;;0.90;0.70;;;;;;;;;;4914700;28;20481;-76
2023/08/09 16:11:23;;;;;;;0.70;0.70;;;;;;;;;;4904608;28;20059;-75
2023/08/09 16:13:48;;;;;;;0.80;0.52;;;;;;;;;;4918098;28;20427;-76
2023/08/09 16:16:14;;;;;;;1.60;0.80;;;;;;;;;;4916621;28;20203;-76
2023/08/09 16:18:40;;;;;;;1.08;0.70;;;;;;;;;;4893805;28;20055;-75
2023/08/09 16:21:05;;;;;;;1.67;1.13;;;;;;;;;;4928255;28;20074;-75
2023/08/09 16:23:31;;;;;;;1.48;0.60;;;;;;;;;;4913820;28;20057;-75
2023/08/09 16:25:56;;;;;;;3.97;0.80;;;;;;;;;;4909096;28;20435;-76
2023/08/09 16:28:22;;;;;;;0.52;0.47;;;;;;;;;;4921971;28;20043;-76
2023/08/09 16:30:47;;;;;;;0.75;0.70;;;;;;;;;;4902630;28;20047;-76
2023/08/09 16:33:13;;;;;;;0.80;0.80;;;;;;;;;;4902203;28;20051;-76
2023/08/09 16:35:40;;;;;;;0.98;0.80;;;;;;;;;;4903768;28;20038;-75
2023/08/09 16:38:06;;;;;;;1.20;0.70;;;;;;;;;;4900702;28;20706;-76
2023/08/09 16:40:33;;;;;;;0.63;0.60;;;;;;;;;;4916470;28;20099;-77
2023/08/09 16:42:59;;;;;;;1.17;0.80;;;;;;;;;;4917624;28;20560;-75
2023/08/09 16:45:26;;;;;;;3.03;2.10;;;;;;;;;;4915545;28;20077;-76
2023/08/09 16:47:53;;;;;;;1.52;0.70;;;;;;;;;;4918675;28;20410;-76
2023/08/09 16:50:21;;;;;;;2.22;1.65;;;;;;;;;;4903967;28;20148;-76
2023/08/09 16:52:47;;;;;;;0.88;0.70;;;;;;;;;;4913435;28;20498;-76
2023/08/09 16:55:18;;;;;;;0.70;0.60;;;;;;;;;;4916343;28;20074;-75
2023/08/09 16:57:44;;;;;;;1.20;0.90;;;;;;;;;;4930106;28;20054;-76
2023/08/09 17:00:14;;;;;;;3.30;2.40;;;;;;;;;;4911393;28;20047;-76
2023/08/09 17:02:40;;;;;;;4.03;1.42;;;;;;;;;;4913638;28;20075;-76
2023/08/09 17:05:08;;;;;;;6.28;3.65;;;;;;;;;;4914948;28;20092;-75
2023/08/09 17:07:37;;;;;;;1.23;0.80;;;;;;;;;;4938988;28;20047;-75
2023/08/09 17:10:02;;;;;;;19.00;12.68;;;;;;;;;;4924128;28;20045;-76
2023/08/09 17:12:28;;;;;;;2.92;2.00;;;;;;;;;;4913284;28;20427;-74
2023/08/09 17:14:53;;;;;;;1.00;0.90;;;;;;;;;;4913194;28;20518;-76
2023/08/09 17:17:18;;;;;;;0.70;0.68;;;;;;;;;;4913824;28;20130;-75
2023/08/09 17:19:44;;;;;;;0.95;0.60;;;;;;;;;;4925595;28;20039;-75
2023/08/09 17:22:09;;;;;;;0.95;0.70;;;;;;;;;;4921791;28;20054;-76
2023/08/09 17:24:35;;;;;;;1.02;0.63;;;;;;;;;;4902845;28;20046;-75
2023/08/09 17:27:00;;;;;;;1.67;0.70;;;;;;;;;;4912623;28;20133;-76
2023/08/09 17:29:26;;;;;;;1.13;0.70;;;;;;;;;;4909594;28;20043;-76
2023/08/09 17:31:51;;;;;;;1.55;0.85;;;;;;;;;;4911204;28;20051;-75
2023/08/09 17:34:17;;;;;;;0.65;0.65;;;;;;;;;;4903650;28;20086;-75
2023/08/09 17:36:42;;;;;;;1.20;0.80;;;;;;;;;;4924888;28;20050;-75
2023/08/09 17:39:08;;;;;;;2.22;0.93;;;;;;;;;;4931644;28;20831;-76
2023/08/09 17:41:33;;;;;;;1.02;0.60;;;;;;;;;;4910156;28;20052;-76
2023/08/09 17:43:58;;;;;;;0.68;0.68;;;;;;;;;;4912741;28;20924;-75
2023/08/09 17:46:24;;;;;;;1.02;0.60;;;;;;;;;;4926807;28;20056;-76
2023/08/09 17:48:51;;;;;;;1.05;0.70;;;;;;;;;;4915941;28;20061;-77
2023/08/09 17:51:19;;;;;;;0.60;0.60;;;;;;;;;;4921521;28;20105;-76
2023/08/09 17:53:44;;;;;;;0.70;0.70;;;;;;;;;;4900069;28;20058;-75
2023/08/09 17:56:10;;;;;;;0.80;0.68;;;;;;;;;;4907012;28;20059;-76
2023/08/09 17:58:35;;;;;;;0.65;0.50;;;;;;;;;;4921207;28;20058;-76
2023/08/09 18:01:01;;;;;;;1.00;0.57;;;;;;;;;;4927471;28;20058;-75
2023/08/09 18:03:26;;;;;;;9.95;6.28;;;;;;;;;;4933886;28;20518;-74
2023/08/09 18:05:52;;;;;;;1.67;1.48;;;;;;;;;;4917124;28;20070;-75
2023/08/09 18:08:17;;;;;;;0.98;0.93;;;;;;;;;;4908175;28;20102;-76
2023/08/09 18:10:43;;;;;;;1.00;0.90;;;;;;;;;;4897949;28;20062;-76
2023/08/09 18:13:08;;;;;;;0.70;0.70;;;;;;;;;;4921879;28;20110;-76
2023/08/09 18:15:33;;;;;;;0.82;0.77;;;;;;;;;;4895992;28;20119;-75
2023/08/09 18:17:59;;;;;;;2.05;0.80;;;;;;;;;;4934123;28;20495;-75
2023/08/09 18:20:25;;;;;;;0.50;0.50;;;;;;;;;;4926883;28;20054;-75
2023/08/09 18:22:51;;;;;;;0.73;0.70;;;;;;;;;;4910102;28;20126;-76
2023/08/09 18:25:21;;;;;;;0.75;0.70;;;;;;;;;;4906727;28;20392;-76
2023/08/09 18:27:47;;;;;;;1.98;0.70;;;;;;;;;;4910368;28;20050;-76
2023/08/09 18:30:13;;;;;;;1.15;0.80;;;;;;;;;;4907591;28;20090;-77
2023/08/09 18:32:39;;;;;;;1.70;0.60;;;;;;;;;;4905845;28;25712;-76
2023/08/09 18:35:05;;;;;;;1.38;0.80;;;;;;;;;;4928171;28;20611;-77
2023/08/09 18:37:31;;;;;;;0.60;0.60;;;;;;;;;;4918896;28;20133;-76
2023/08/09 18:39:56;;;;;;;2.47;1.00;;;;;;;;;;4920493;28;20054;-76
2023/08/09 18:42:22;;;;;;;1.15;0.70;;;;;;;;;;4909417;28;20535;-77
2023/08/09 18:44:48;;;;;;;1.00;0.70;;;;;;;;;;4911355;28;20059;-76
2023/08/09 18:47:14;;;;;;;0.80;0.80;;;;;;;;;;4910892;28;20577;-75
2023/08/09 18:49:39;;;;;;;1.00;0.70;;;;;;;;;;4914042;28;20028;-75
2023/08/09 18:52:04;;;;;;;1.00;0.90;;;;;;;;;;4907741;28;20051;-76
2023/08/09 18:54:30;;;;;;;1.10;0.88;;;;;;;;;;4908619;28;20039;-77
2023/08/09 18:56:55;;;;;;;2.78;0.80;;;;;;;;;;4916387;28;21671;-76
2023/08/09 18:59:21;;;;;;;0.52;0.52;;;;;;;;;;4910596;28;20051;-75
2023/08/09 19:01:48;;;;;;;2.22;0.80;;;;;;;;;;4910857;28;20039;-75
2023/08/09 19:04:14;;;;;;;2.30;0.60;;;;;;;;;;4910969;28;20126;-74
2023/08/09 19:06:41;;;;;;;0.70;0.70;;;;;;;;;;4870746;28;20895;-76
2023/08/09 19:09:07;;;;;;;1.38;0.80;;;;;;;;;;4919927;28;20045;-77
2023/08/09 19:11:32;;;;;;;0.60;0.60;;;;;;;;;;4924232;28;20050;-76
2023/08/09 19:13:58;;;;;;;0.65;0.65;;;;;;;;;;4916770;28;20907;-76
2023/08/09 19:16:24;;;;;;;0.85;0.77;;;;;;;;;;4905653;28;20043;-77
2023/08/09 19:18:49;;;;;;;1.67;0.80;;;;;;;;;;4902069;28;20170;-76
2023/08/09 19:21:15;;;;;;;0.75;0.75;;;;;;;;;;4910740;28;20046;-76
2023/08/09 19:23:40;;;;;;;0.80;0.80;;;;;;;;;;4920423;28;20046;-76
2023/08/09 19:26:05;;;;;;;0.95;0.85;;;;;;;;;;4918234;28;20051;-76
2023/08/09 19:28:31;;;;;;;0.90;0.75;;;;;;;;;;4917193;28;20042;-76
2023/08/09 19:30:59;;;;;;;1.52;0.85;;;;;;;;;;4914295;28;20141;-77
2023/08/09 19:33:31;;;;;;;0.80;0.60;;;;;;;;;;4907387;28;20121;-77
2023/08/09 19:35:57;;;;;;;2.05;0.85;;;;;;;;;;4910808;28;20058;-76
2023/08/09 19:38:23;;;;;;;1.35;0.50;;;;;;;;;;4922904;28;20050;-75
2023/08/09 19:40:48;;;;;;;0.88;0.88;;;;;;;;;;4922203;28;20849;-77
2023/08/09 19:43:13;;;;;;;1.77;0.70;;;;;;;;;;4914453;28;20042;-76
2023/08/09 19:45:39;;;;;;;1.30;0.80;;;;;;;;;;4908403;28;20678;-75
2023/08/09 19:48:05;;;;;;;3.63;1.02;;;;;;;;;;4908346;28;20058;-75
2023/08/09 19:50:30;;;;;;;1.10;0.77;;;;;;;;;;4908406;28;20074;-76
2023/08/09 19:52:56;;;;;;;0.93;0.82;;;;;;;;;;4915473;28;20610;-76
2023/08/09 19:55:22;;;;;;;1.90;0.70;;;;;;;;;;4929478;28;20064;-75
2023/08/09 19:57:47;;;;;;;0.70;0.60;;;;;;;;;;4924483;28;20089;-76
2023/08/09 20:00:16;;;;;;;0.93;0.77;;;;;;;;;;4910820;28;20472;-76
2023/08/09 20:02:44;;;;;;;0.90;0.80;;;;;;;;;;4917634;28;20046;-75
2023/08/09 20:05:12;;;;;;;1.38;0.80;;;;;;;;;;4920673;28;20034;-76
2023/08/09 20:07:42;;;;;;;1.67;1.23;;;;;;;;;;4918709;28;20454;-75
2023/08/09 20:10:08;;;;;;;0.88;0.85;;;;;;;;;;4907988;28;20380;-76
2023/08/09 20:12:33;;;;;;;1.48;0.90;;;;;;;;;;4915543;28;20046;-75
2023/08/09 20:14:59;;;;;;;1.15;1.00;;;;;;;;;;4875129;28;20039;-76
2023/08/09 20:17:24;;;;;;;1.75;0.80;;;;;;;;;;4921487;28;20508;-76
2023/08/09 20:19:50;;;;;;;1.20;0.75;;;;;;;;;;4929625;28;20106;-76
2023/08/09 20:22:15;;;;;;;0.88;0.73;;;;;;;;;;4930615;28;20137;-77
2023/08/09 20:24:43;;;;;;;0.90;0.77;;;;;;;;;;4917634;28;20042;-77
2023/08/09 20:27:09;;;;;;;0.98;0.90;;;;;;;;;;4934746;28;20053;-76
2023/08/09 20:29:35;;;;;;;1.20;0.90;;;;;;;;;;4918563;28;20050;-76
2023/08/09 20:32:00;;;;;;;1.40;0.93;;;;;;;;;;4922085;28;20124;-77
2023/08/09 20:34:26;;;;;;;1.50;1.00;;;;;;;;;;4929006;28;20134;-75
2023/08/09 20:36:51;;;;;;;1.20;0.95;;;;;;;;;;4918009;28;20055;-76
2023/08/09 20:39:17;;;;;;;1.00;0.80;;;;;;;;;;4915212;28;20042;-76
2023/08/09 20:41:42;;;;;;;0.90;0.77;;;;;;;;;;4918604;28;20057;-77
2023/08/09 20:44:08;;;;;;;2.67;0.98;;;;;;;;;;4914152;28;20121;-76
2023/08/09 20:46:33;;;;;;;1.30;0.90;;;;;;;;;;4924959;28;20049;-76
2023/08/09 20:48:58;;;;;;;1.27;0.80;;;;;;;;;;4918068;28;20042;-75
2023/08/09 20:51:24;;;;;;;1.63;0.80;;;;;;;;;;4929001;28;20058;-75
2023/08/09 20:53:50;;;;;;;1.83;0.80;;;;;;;;;;4918709;28;20042;-76
2023/08/09 20:56:17;;;;;;;1.23;1.00;;;;;;;;;;4918086;28;20044;-76
2023/08/09 20:58:42;;;;;;;1.63;0.75;;;;;;;;;;4940949;28;20080;-77
2023/08/09 21:01:12;;;;;;;0.65;0.63;;;;;;;;;;4922364;28;20055;-76
2023/08/09 21:03:38;;;;;;;2.85;1.05;;;;;;;;;;4927362;28;20089;-75
2023/08/09 21:06:04;;;;;;;1.20;0.82;;;;;;;;;;4918396;28;20054;-75
2023/08/09 21:08:30;;;;;;;1.10;0.80;;;;;;;;;;4916456;28;20073;-76
2023/08/09 21:10:55;;;;;;;1.00;0.90;;;;;;;;;;4917087;28;20050;-76
2023/08/09 21:13:21;;;;;;;0.88;0.88;;;;;;;;;;4919442;28;20038;-76
2023/08/09 21:15:46;;;;;;;1.48;1.00;;;;;;;;;;4918910;28;20051;-77
2023/08/09 21:18:12;;;;;;;1.35;1.10;;;;;;;;;;4917925;28;20101;-76
2023/08/09 21:20:39;;;;;;;1.20;1.10;;;;;;;;;;4923541;28;20130;-76
2023/08/09 21:23:05;;;;;;;1.30;1.20;;;;;;;;;;4911024;28;22953;-76
2023/08/09 21:25:34;;;;;;;1.67;1.30;;;;;;;;;;4914403;28;20047;-76
2023/08/09 21:27:59;;;;;;;1.70;1.17;;;;;;;;;;4904793;28;20541;-75
2023/08/09 21:30:25;;;;;;;3.00;1.10;;;;;;;;;;4911189;28;20046;-77
2023/08/09 21:32:50;;;;;;;2.45;1.90;;;;;;;;;;4924325;28;20129;-76
2023/08/09 21:35:16;;;;;;;1.85;1.10;;;;;;;;;;4919521;28;20046;-76
2023/08/09 21:37:41;;;;;;;1.90;1.50;;;;;;;;;;4907850;28;20043;-75
2023/08/09 21:40:07;;;;;;;1.27;1.17;;;;;;;;;;4917008;28;21426;-76
2023/08/09 21:42:32;;;;;;;1.77;1.48;;;;;;;;;;4929757;28;20100;-76
2023/08/09 21:44:59;;;;;;;1.55;1.42;;;;;;;;;;4928211;28;20462;-76
2023/08/09 21:47:24;;;;;;;1.67;1.27;;;;;;;;;;4927016;28;20100;-75
2023/08/09 21:49:50;;;;;;;2.13;1.48;;;;;;;;;;4950451;28;20038;-74
2023/08/09 21:52:15;;;;;;;2.25;1.40;;;;;;;;;;4961886;28;20037;-75
2023/08/09 21:54:40;;;;;;;1.70;1.40;;;;;;;;;;4975127;28;20058;-75
2023/08/09 21:57:06;;;;;;;1.63;1.20;;;;;;;;;;4974379;28;20050;-75
2023/08/09 21:59:31;;;;;;;1.35;1.10;;;;;;;;;;4975688;28;20098;-75
2023/08/09 22:01:57;;;;;;;3.72;1.48;;;;;;;;;;4978610;28;20050;-75
2023/08/09 22:04:22;;;;;;;1.42;1.10;;;;;;;;;;4975209;28;20041;-75
2023/08/09 22:06:48;;;;;;;3.08;1.50;;;;;;;;;;4967378;28;20034;-75
2023/08/09 22:09:14;;;;;;;2.95;1.20;;;;;;;;;;4978520;28;20125;-75
2023/08/09 22:11:39;;;;;;;3.13;1.50;;;;;;;;;;4979480;28;20118;-75
2023/08/09 22:14:05;;;;;;;1.10;1.00;;;;;;;;;;4974930;28;20089;-76
2023/08/09 22:16:30;;;;;;;1.92;1.13;;;;;;;;;;4975563;28;20495;-75
2023/08/09 22:18:56;;;;;;;1.48;1.38;;;;;;;;;;4980630;28;20041;-76
2023/08/09 22:21:23;;;;;;;1.20;1.10;;;;;;;;;;4969742;28;20054;-76
2023/08/09 22:23:49;;;;;;;1.63;1.30;;;;;;;;;;4965270;28;20030;-74
2023/08/09 22:26:14;;;;;;;1.42;1.10;;;;;;;;;;4976558;28;20458;-75
2023/08/09 22:28:40;;;;;;;3.50;1.45;;;;;;;;;;4979194;28;20064;-75
2023/08/09 22:31:06;;;;;;;3.22;1.45;;;;;;;;;;4981724;28;20491;-75
2023/08/09 22:33:32;;;;;;;2.33;1.40;;;;;;;;;;4982992;28;20034;-75
2023/08/09 22:35:57;;;;;;;2.78;1.50;;;;;;;;;;4969485;28;20050;-74
2023/08/09 22:38:23;;;;;;;3.83;1.70;;;;;;;;;;4982093;28;20100;-75